sensor_id;sensor_type;location;lat;lon;timestamp;temperature;humidity
2893;DHT22;1456;51.840;12.184;2023-06-05T00:01:06;12.30;95.70
2893;DHT22;1456;51.840;12.184;2023-06-05T00:03:35;12.20;95.60
2893;DHT22;1456;51.840;12.184;2023-06-05T00:06:03;12.10;95.20
2893;DHT22;1456;51.840;12.184;2023-06-05T00:08:29;12.00;96.00
2893;DHT22;1456;51.840;12.184;2023-06-05T00:10:56;12.00;96.20
2893;DHT22;1456;51.840;12.184;2023-06-05T00:13:24;11.90;96.00
2893;DHT22;1456;51.840;12.184;2023-06-05T00:15:49;11.90;96.10
2893;DHT22;1456;51.840;12.184;2023-06-05T00:18:20;11.90;96.10
2893;DHT22;1456;51.840;12.184;2023-06-05T00:20:47;11.80;96.20
2893;DHT22;1456;51.840;12.184;2023-06-05T00:23:25;11.70;95.90
2893;DHT22;1456;51.840;12.184;2023-06-05T00:26:01;11.80;95.10
2893;DHT22;1456;51.840;12.184;2023-06-05T00:28:28;11.80;95.70
2893;DHT22;1456;51.840;12.184;2023-06-05T00:30:55;11.80;96.10
2893;DHT22;1456;51.840;12.184;2023-06-05T00:33:25;11.70;95.10
2893;DHT22;1456;51.840;12.184;2023-06-05T00:35:51;11.70;95.90
2893;DHT22;1456;51.840;12.184;2023-06-05T00:38:20;11.60;95.60
2893;DHT22;1456;51.840;12.184;2023-06-05T00:40:47;11.60;96.20
2893;DHT22;1456;51.840;12.184;2023-06-05T00:43:12;11.50;96.80
2893;DHT22;1456;51.840;12.184;2023-06-05T00:45:38;11.50;96.10
2893;DHT22;1456;51.840;12.184;2023-06-05T00:48:04;11.50;97.00
2893;DHT22;1456;51.840;12.184;2023-06-05T00:50:32;11.50;96.50
2893;DHT22;1456;51.840;12.184;2023-06-05T00:53:01;11.40;96.90
2893;DHT22;1456;51.840;12.184;2023-06-05T00:55:27;11.30;97.20
2893;DHT22;1456;51.840;12.184;2023-06-05T00:57:58;11.30;97.80
2893;DHT22;1456;51.840;12.184;2023-06-05T01:00:25;11.30;98.10
2893;DHT22;1456;51.840;12.184;2023-06-05T01:02:57;11.20;98.30
2893;DHT22;1456;51.840;12.184;2023-06-05T01:05:24;11.20;98.10
2893;DHT22;1456;51.840;12.184;2023-06-05T01:07:51;11.10;98.30
2893;DHT22;1456;51.840;12.184;2023-06-05T01:10:18;11.10;98.80
2893;DHT22;1456;51.840;12.184;2023-06-05T01:15:38;11.00;99.50
2893;DHT22;1456;51.840;12.184;2023-06-05T01:18:13;11.00;99.70
2893;DHT22;1456;51.840;12.184;2023-06-05T01:20:40;11.00;99.70
2893;DHT22;1456;51.840;12.184;2023-06-05T01:23:09;11.00;99.90
2893;DHT22;1456;51.840;12.184;2023-06-05T01:25:36;10.90;99.90
2893;DHT22;1456;51.840;12.184;2023-06-05T01:28:22;10.90;99.90
2893;DHT22;1456;51.840;12.184;2023-06-05T01:30:57;10.90;99.90
2893;DHT22;1456;51.840;12.184;2023-06-05T01:33:31;10.80;99.90
2893;DHT22;1456;51.840;12.184;2023-06-05T01:36:02;10.80;99.90
2893;DHT22;1456;51.840;12.184;2023-06-05T01:38:33;10.70;99.90
2893;DHT22;1456;51.840;12.184;2023-06-05T01:41:04;10.70;99.90
2893;DHT22;1456;51.840;12.184;2023-06-05T01:43:33;10.60;99.90
2893;DHT22;1456;51.840;12.184;2023-06-05T01:46:00;10.50;99.90
2893;DHT22;1456;51.840;12.184;2023-06-05T01:48:27;10.50;99.90
2893;DHT22;1456;51.840;12.184;2023-06-05T01:50:57;10.50;99.90
2893;DHT22;1456;51.840;12.184;2023-06-05T01:53:23;10.50;99.90
2893;DHT22;1456;51.840;12.184;2023-06-05T01:55:49;10.50;99.90
2893;DHT22;1456;51.840;12.184;2023-06-05T01:58:18;10.50;99.90
2893;DHT22;1456;51.840;12.184;2023-06-05T02:00:45;10.60;99.90
2893;DHT22;1456;51.840;12.184;2023-06-05T02:03:11;10.60;99.90
2893;DHT22;1456;51.840;12.184;2023-06-05T02:05:39;10.60;99.90
2893;DHT22;1456;51.840;12.184;2023-06-05T02:08:05;10.60;99.90
2893;DHT22;1456;51.840;12.184;2023-06-05T02:10:39;10.50;99.90
2893;DHT22;1456;51.840;12.184;2023-06-05T02:13:11;10.50;99.90
2893;DHT22;1456;51.840;12.184;2023-06-05T02:15:43;10.40;99.90
2893;DHT22;1456;51.840;12.184;2023-06-05T02:18:11;10.40;99.90
2893;DHT22;1456;51.840;12.184;2023-06-05T02:20:41;10.30;99.90
2893;DHT22;1456;51.840;12.184;2023-06-05T02:23:10;10.30;99.90
2893;DHT22;1456;51.840;12.184;2023-06-05T02:25:36;10.20;99.90
2893;DHT22;1456;51.840;12.184;2023-06-05T02:28:04;10.20;99.90
2893;DHT22;1456;51.840;12.184;2023-06-05T02:30:30;10.20;99.90
2893;DHT22;1456;51.840;12.184;2023-06-05T02:32:58;10.20;99.90
2893;DHT22;1456;51.840;12.184;2023-06-05T02:35:31;10.10;99.90
2893;DHT22;1456;51.840;12.184;2023-06-05T02:37:57;10.10;99.90
2893;DHT22;1456;51.840;12.184;2023-06-05T02:40:25;10.00;99.90
2893;DHT22;1456;51.840;12.184;2023-06-05T02:42:51;10.00;99.90
2893;DHT22;1456;51.840;12.184;2023-06-05T02:45:19;10.10;99.90
2893;DHT22;1456;51.840;12.184;2023-06-05T02:47:45;10.10;99.90
2893;DHT22;1456;51.840;12.184;2023-06-05T02:50:11;10.00;99.90
2893;DHT22;1456;51.840;12.184;2023-06-05T02:52:45;10.00;99.90
2893;DHT22;1456;51.840;12.184;2023-06-05T02:55:13;10.10;99.90
2893;DHT22;1456;51.840;12.184;2023-06-05T02:57:42;10.20;99.90
2893;DHT22;1456;51.840;12.184;2023-06-05T03:00:10;10.20;99.90
2893;DHT22;1456;51.840;12.184;2023-06-05T03:02:40;10.20;99.90
2893;DHT22;1456;51.840;12.184;2023-06-05T03:05:07;10.20;99.90
2893;DHT22;1456;51.840;12.184;2023-06-05T03:07:33;10.20;99.90
2893;DHT22;1456;51.840;12.184;2023-06-05T03:10:01;10.20;99.90
2893;DHT22;1456;51.840;12.184;2023-06-05T03:12:27;10.10;99.90
2893;DHT22;1456;51.840;12.184;2023-06-05T03:14:54;10.00;99.90
2893;DHT22;1456;51.840;12.184;2023-06-05T03:17:22;10.00;99.90
2893;DHT22;1456;51.840;12.184;2023-06-05T03:19:49;10.00;99.90
2893;DHT22;1456;51.840;12.184;2023-06-05T03:22:17;10.00;99.90
2893;DHT22;1456;51.840;12.184;2023-06-05T03:24:44;10.10;99.90
2893;DHT22;1456;51.840;12.184;2023-06-05T03:27:10;10.20;99.90
2893;DHT22;1456;51.840;12.184;2023-06-05T03:29:36;10.20;99.90
2893;DHT22;1456;51.840;12.184;2023-06-05T03:32:02;10.30;99.90
2893;DHT22;1456;51.840;12.184;2023-06-05T03:34:28;10.30;99.90
2893;DHT22;1456;51.840;12.184;2023-06-05T03:36:55;10.30;99.90
2893;DHT22;1456;51.840;12.184;2023-06-05T03:39:24;10.30;99.90
2893;DHT22;1456;51.840;12.184;2023-06-05T03:41:51;10.30;99.90
2893;DHT22;1456;51.840;12.184;2023-06-05T03:44:17;10.40;99.90
2893;DHT22;1456;51.840;12.184;2023-06-05T03:46:46;10.40;99.90
2893;DHT22;1456;51.840;12.184;2023-06-05T03:49:12;10.50;99.90
2893;DHT22;1456;51.840;12.184;2023-06-05T03:51:38;10.60;99.90
2893;DHT22;1456;51.840;12.184;2023-06-05T03:54:07;10.70;99.90
2893;DHT22;1456;51.840;12.184;2023-06-05T03:56:33;10.70;99.90
2893;DHT22;1456;51.840;12.184;2023-06-05T03:59:03;10.70;99.90
2893;DHT22;1456;51.840;12.184;2023-06-05T04:01:42;10.70;99.90
2893;DHT22;1456;51.840;12.184;2023-06-05T04:04:09;10.80;99.90
2893;DHT22;1456;51.840;12.184;2023-06-05T04:06:35;10.80;99.90
2893;DHT22;1456;51.840;12.184;2023-06-05T04:09:04;10.90;99.90
2893;DHT22;1456;51.840;12.184;2023-06-05T04:11:42;11.00;99.90
2893;DHT22;1456;51.840;12.184;2023-06-05T04:14:11;11.00;99.90
2893;DHT22;1456;51.840;12.184;2023-06-05T04:16:38;11.10;99.90
2893;DHT22;1456;51.840;12.184;2023-06-05T04:19:05;11.20;99.90
2893;DHT22;1456;51.840;12.184;2023-06-05T04:21:36;11.40;99.90
2893;DHT22;1456;51.840;12.184;2023-06-05T04:24:05;11.50;99.90
2893;DHT22;1456;51.840;12.184;2023-06-05T04:26:33;11.60;99.90
2893;DHT22;1456;51.840;12.184;2023-06-05T04:29:03;11.80;99.90
2893;DHT22;1456;51.840;12.184;2023-06-05T04:31:35;11.90;99.90
2893;DHT22;1456;51.840;12.184;2023-06-05T04:34:01;12.10;99.90
2893;DHT22;1456;51.840;12.184;2023-06-05T04:36:33;12.20;99.90
2893;DHT22;1456;51.840;12.184;2023-06-05T04:39:00;12.40;99.90
2893;DHT22;1456;51.840;12.184;2023-06-05T04:41:32;12.50;99.70
2893;DHT22;1456;51.840;12.184;2023-06-05T04:43:59;12.60;99.80
2893;DHT22;1456;51.840;12.184;2023-06-05T04:46:26;12.70;99.50
2893;DHT22;1456;51.840;12.184;2023-06-05T04:48:56;12.90;99.30
2893;DHT22;1456;51.840;12.184;2023-06-05T04:51:23;13.00;99.00
2893;DHT22;1456;51.840;12.184;2023-06-05T04:53:52;13.20;98.20
2893;DHT22;1456;51.840;12.184;2023-06-05T04:56:21;13.30;97.90
2893;DHT22;1456;51.840;12.184;2023-06-05T04:58:47;13.50;97.30
2893;DHT22;1456;51.840;12.184;2023-06-05T05:01:24;13.60;97.20
2893;DHT22;1456;51.840;12.184;2023-06-05T05:03:51;13.80;96.70
2893;DHT22;1456;51.840;12.184;2023-06-05T05:06:17;13.70;95.60
2893;DHT22;1456;51.840;12.184;2023-06-05T05:08:44;13.80;95.80
2893;DHT22;1456;51.840;12.184;2023-06-05T05:11:17;13.90;96.00
2893;DHT22;1456;51.840;12.184;2023-06-05T05:13:46;14.00;95.50
2893;DHT22;1456;51.840;12.184;2023-06-05T05:16:12;14.20;95.70
2893;DHT22;1456;51.840;12.184;2023-06-05T05:18:42;14.20;95.40
2893;DHT22;1456;51.840;12.184;2023-06-05T05:21:14;14.40;94.70
2893;DHT22;1456;51.840;12.184;2023-06-05T05:23:41;14.50;95.30
2893;DHT22;1456;51.840;12.184;2023-06-05T05:26:07;14.70;95.00
2893;DHT22;1456;51.840;12.184;2023-06-05T05:28:33;14.80;94.50
2893;DHT22;1456;51.840;12.184;2023-06-05T05:30:58;14.90;94.50
2893;DHT22;1456;51.840;12.184;2023-06-05T05:33:26;15.00;94.30
2893;DHT22;1456;51.840;12.184;2023-06-05T05:35:52;15.00;94.10
2893;DHT22;1456;51.840;12.184;2023-06-05T05:38:20;15.10;94.50
2893;DHT22;1456;51.840;12.184;2023-06-05T05:40:45;15.10;93.70
2893;DHT22;1456;51.840;12.184;2023-06-05T05:43:13;15.20;93.60
2893;DHT22;1456;51.840;12.184;2023-06-05T05:45:40;15.30;94.00
2893;DHT22;1456;51.840;12.184;2023-06-05T05:48:07;15.50;93.00
2893;DHT22;1456;51.840;12.184;2023-06-05T05:50:36;15.70;93.80
2893;DHT22;1456;51.840;12.184;2023-06-05T05:53:03;16.00;93.20
2893;DHT22;1456;51.840;12.184;2023-06-05T05:55:29;16.20;92.10
2893;DHT22;1456;51.840;12.184;2023-06-05T05:57:54;16.40;92.60
2893;DHT22;1456;51.840;12.184;2023-06-05T06:00:20;16.70;91.70
2893;DHT22;1456;51.840;12.184;2023-06-05T06:02:47;16.90;91.60
2893;DHT22;1456;51.840;12.184;2023-06-05T06:05:13;17.10;91.30
2893;DHT22;1456;51.840;12.184;2023-06-05T06:07:43;17.30;92.20
2893;DHT22;1456;51.840;12.184;2023-06-05T06:10:15;17.50;91.40
2893;DHT22;1456;51.840;12.184;2023-06-05T06:12:41;17.70;90.40
2893;DHT22;1456;51.840;12.184;2023-06-05T06:15:08;17.90;91.20
2893;DHT22;1456;51.840;12.184;2023-06-05T06:17:33;18.00;85.70
2893;DHT22;1456;51.840;12.184;2023-06-05T06:20:00;18.20;83.90
2893;DHT22;1456;51.840;12.184;2023-06-05T06:22:29;18.40;81.50
2893;DHT22;1456;51.840;12.184;2023-06-05T06:24:55;18.60;81.90
2893;DHT22;1456;51.840;12.184;2023-06-05T06:27:22;18.80;84.90
2893;DHT22;1456;51.840;12.184;2023-06-05T06:29:49;19.10;83.10
2893;DHT22;1456;51.840;12.184;2023-06-05T06:32:20;19.20;82.10
2893;DHT22;1456;51.840;12.184;2023-06-05T06:34:46;19.40;78.00
2893;DHT22;1456;51.840;12.184;2023-06-05T06:37:15;19.60;84.10
2893;DHT22;1456;51.840;12.184;2023-06-05T06:39:42;19.70;77.10
2893;DHT22;1456;51.840;12.184;2023-06-05T06:42:10;19.90;77.60
2893;DHT22;1456;51.840;12.184;2023-06-05T06:44:36;20.10;78.20
2893;DHT22;1456;51.840;12.184;2023-06-05T06:47:02;20.20;77.40
2893;DHT22;1456;51.840;12.184;2023-06-05T06:49:29;20.40;77.10
2893;DHT22;1456;51.840;12.184;2023-06-05T06:51:55;20.40;72.90
2893;DHT22;1456;51.840;12.184;2023-06-05T06:54:21;20.50;74.00
2893;DHT22;1456;51.840;12.184;2023-06-05T06:56:48;20.50;75.10
2893;DHT22;1456;51.840;12.184;2023-06-05T06:59:15;20.60;73.90
2893;DHT22;1456;51.840;12.184;2023-06-05T07:01:44;20.70;72.50
2893;DHT22;1456;51.840;12.184;2023-06-05T07:04:12;20.80;73.30
2893;DHT22;1456;51.840;12.184;2023-06-05T07:06:44;21.00;73.10
2893;DHT22;1456;51.840;12.184;2023-06-05T07:09:10;21.20;71.70
2893;DHT22;1456;51.840;12.184;2023-06-05T07:11:36;21.30;69.00
2893;DHT22;1456;51.840;12.184;2023-06-05T07:14:01;21.50;69.30
2893;DHT22;1456;51.840;12.184;2023-06-05T07:16:27;21.60;73.10
2893;DHT22;1456;51.840;12.184;2023-06-05T07:18:53;21.90;68.40
2893;DHT22;1456;51.840;12.184;2023-06-05T07:21:20;22.00;66.90
2893;DHT22;1456;51.840;12.184;2023-06-05T07:23:50;22.00;66.60
2893;DHT22;1456;51.840;12.184;2023-06-05T07:26:19;22.10;67.60
2893;DHT22;1456;51.840;12.184;2023-06-05T07:28:45;22.30;65.40
2893;DHT22;1456;51.840;12.184;2023-06-05T07:31:15;22.60;64.80
2893;DHT22;1456;51.840;12.184;2023-06-05T07:33:42;22.80;61.90
2893;DHT22;1456;51.840;12.184;2023-06-05T07:36:08;23.00;65.40
2893;DHT22;1456;51.840;12.184;2023-06-05T07:38:36;23.20;61.50
2893;DHT22;1456;51.840;12.184;2023-06-05T07:41:01;23.40;62.60
2893;DHT22;1456;51.840;12.184;2023-06-05T07:43:28;23.60;58.50
2893;DHT22;1456;51.840;12.184;2023-06-05T07:45:53;23.60;59.50
2893;DHT22;1456;51.840;12.184;2023-06-05T07:48:20;23.80;58.40
2893;DHT22;1456;51.840;12.184;2023-06-05T07:50:50;23.80;58.30
2893;DHT22;1456;51.840;12.184;2023-06-05T07:53:15;23.70;57.90
2893;DHT22;1456;51.840;12.184;2023-06-05T07:55:42;23.80;57.60
2893;DHT22;1456;51.840;12.184;2023-06-05T07:58:07;23.90;58.10
2893;DHT22;1456;51.840;12.184;2023-06-05T08:00:34;24.10;57.10
2893;DHT22;1456;51.840;12.184;2023-06-05T08:02:59;24.10;55.50
2893;DHT22;1456;51.840;12.184;2023-06-05T08:05:25;24.30;57.60
2893;DHT22;1456;51.840;12.184;2023-06-05T08:07:51;24.50;56.50
2893;DHT22;1456;51.840;12.184;2023-06-05T08:10:18;24.70;54.50
2893;DHT22;1456;51.840;12.184;2023-06-05T08:12:43;24.90;55.00
2893;DHT22;1456;51.840;12.184;2023-06-05T08:15:09;25.10;56.40
2893;DHT22;1456;51.840;12.184;2023-06-05T08:17:35;25.30;53.10
2893;DHT22;1456;51.840;12.184;2023-06-05T08:20:01;25.40;52.90
2893;DHT22;1456;51.840;12.184;2023-06-05T08:22:30;25.50;52.40
2893;DHT22;1456;51.840;12.184;2023-06-05T08:24:56;25.60;57.10
2893;DHT22;1456;51.840;12.184;2023-06-05T08:27:25;25.80;53.20
2893;DHT22;1456;51.840;12.184;2023-06-05T08:29:51;26.00;52.40
2893;DHT22;1456;51.840;12.184;2023-06-05T08:32:17;26.10;52.00
2893;DHT22;1456;51.840;12.184;2023-06-05T08:34:44;26.30;51.50
2893;DHT22;1456;51.840;12.184;2023-06-05T08:37:10;26.40;48.70
2893;DHT22;1456;51.840;12.184;2023-06-05T08:39:36;26.50;48.50
2893;DHT22;1456;51.840;12.184;2023-06-05T08:42:02;26.50;49.80
2893;DHT22;1456;51.840;12.184;2023-06-05T08:44:29;26.70;50.10
2893;DHT22;1456;51.840;12.184;2023-06-05T08:47:00;26.90;50.30
2893;DHT22;1456;51.840;12.184;2023-06-05T08:49:28;27.10;49.40
2893;DHT22;1456;51.840;12.184;2023-06-05T08:52:05;27.30;48.00
2893;DHT22;1456;51.840;12.184;2023-06-05T08:54:37;27.30;46.00
2893;DHT22;1456;51.840;12.184;2023-06-05T08:57:04;27.30;44.40
2893;DHT22;1456;51.840;12.184;2023-06-05T08:59:30;27.40;44.50
2893;DHT22;1456;51.840;12.184;2023-06-05T09:01:56;27.50;44.50
2893;DHT22;1456;51.840;12.184;2023-06-05T09:04:22;27.60;44.40
2893;DHT22;1456;51.840;12.184;2023-06-05T09:06:50;27.70;47.20
2893;DHT22;1456;51.840;12.184;2023-06-05T09:09:19;27.90;45.70
2893;DHT22;1456;51.840;12.184;2023-06-05T09:11:45;27.90;43.40
2893;DHT22;1456;51.840;12.184;2023-06-05T09:14:11;28.00;46.30
2893;DHT22;1456;51.840;12.184;2023-06-05T09:16:42;28.10;43.50
2893;DHT22;1456;51.840;12.184;2023-06-05T09:19:11;28.20;44.70
2893;DHT22;1456;51.840;12.184;2023-06-05T09:21:37;28.20;42.90
2893;DHT22;1456;51.840;12.184;2023-06-05T09:24:10;28.30;43.10
2893;DHT22;1456;51.840;12.184;2023-06-05T09:26:59;28.20;42.20
2893;DHT22;1456;51.840;12.184;2023-06-05T09:31:54;28.20;42.60
2893;DHT22;1456;51.840;12.184;2023-06-05T09:34:30;28.40;43.90
2893;DHT22;1456;51.840;12.184;2023-06-05T09:37:00;28.40;40.60
2893;DHT22;1456;51.840;12.184;2023-06-05T09:39:27;28.60;41.00
2893;DHT22;1456;51.840;12.184;2023-06-05T09:41:55;28.90;42.70
2893;DHT22;1456;51.840;12.184;2023-06-05T09:44:22;29.40;39.50
2893;DHT22;1456;51.840;12.184;2023-06-05T09:46:58;29.80;40.60
2893;DHT22;1456;51.840;12.184;2023-06-05T09:49:29;30.10;41.80
2893;DHT22;1456;51.840;12.184;2023-06-05T09:51:59;30.40;39.10
2893;DHT22;1456;51.840;12.184;2023-06-05T09:54:27;30.80;36.30
2893;DHT22;1456;51.840;12.184;2023-06-05T09:56:59;31.00;37.00
2893;DHT22;1456;51.840;12.184;2023-06-05T09:59:31;31.10;35.30
2893;DHT22;1456;51.840;12.184;2023-06-05T10:02:06;31.00;37.30
2893;DHT22;1456;51.840;12.184;2023-06-05T10:04:43;31.30;38.70
2893;DHT22;1456;51.840;12.184;2023-06-05T10:07:11;31.30;35.40
2893;DHT22;1456;51.840;12.184;2023-06-05T10:09:38;31.70;38.20
2893;DHT22;1456;51.840;12.184;2023-06-05T10:12:05;32.10;34.90
2893;DHT22;1456;51.840;12.184;2023-06-05T10:14:36;32.60;35.70
2893;DHT22;1456;51.840;12.184;2023-06-05T10:17:06;33.00;34.90
2893;DHT22;1456;51.840;12.184;2023-06-05T10:19:32;33.10;33.40
2893;DHT22;1456;51.840;12.184;2023-06-05T10:21:58;33.20;34.00
2893;DHT22;1456;51.840;12.184;2023-06-05T10:24:36;33.60;34.70
2893;DHT22;1456;51.840;12.184;2023-06-05T10:27:19;34.00;32.60
2893;DHT22;1456;51.840;12.184;2023-06-05T10:35:59;34.30;32.90
2893;DHT22;1456;51.840;12.184;2023-06-05T10:38:29;34.10;33.00
2893;DHT22;1456;51.840;12.184;2023-06-05T10:41:00;34.10;33.50
2893;DHT22;1456;51.840;12.184;2023-06-05T10:43:46;34.20;33.60
2893;DHT22;1456;51.840;12.184;2023-06-05T10:46:34;34.10;33.40
2893;DHT22;1456;51.840;12.184;2023-06-05T10:49:14;34.50;34.50
2893;DHT22;1456;51.840;12.184;2023-06-05T10:51:46;35.30;35.00
2893;DHT22;1456;51.840;12.184;2023-06-05T10:57:05;36.30;30.20
2893;DHT22;1456;51.840;12.184;2023-06-05T10:59:36;35.90;30.10
2893;DHT22;1456;51.840;12.184;2023-06-05T11:07:23;35.70;30.30
2893;DHT22;1456;51.840;12.184;2023-06-05T11:17:47;36.60;30.50
2893;DHT22;1456;51.840;12.184;2023-06-05T11:28:04;39.90;29.10
2893;DHT22;1456;51.840;12.184;2023-06-05T11:30:43;40.20;29.70
2893;DHT22;1456;51.840;12.184;2023-06-05T11:33:15;39.90;29.50
2893;DHT22;1456;51.840;12.184;2023-06-05T11:35:46;40.70;27.50
2893;DHT22;1456;51.840;12.184;2023-06-05T11:40:40;42.90;27.00
2893;DHT22;1456;51.840;12.184;2023-06-05T11:43:08;42.90;28.20
2893;DHT22;1456;51.840;12.184;2023-06-05T11:45:38;43.40;27.40
2893;DHT22;1456;51.840;12.184;2023-06-05T11:48:11;43.70;26.60
2893;DHT22;1456;51.840;12.184;2023-06-05T11:50:40;43.40;26.70
2893;DHT22;1456;51.840;12.184;2023-06-05T11:53:16;42.30;25.40
2893;DHT22;1456;51.840;12.184;2023-06-05T11:55:42;41.50;26.00
2893;DHT22;1456;51.840;12.184;2023-06-05T12:00:49;42.10;27.30
2893;DHT22;1456;51.840;12.184;2023-06-05T12:03:19;42.30;26.90
2893;DHT22;1456;51.840;12.184;2023-06-05T12:05:45;42.70;27.20
2893;DHT22;1456;51.840;12.184;2023-06-05T12:08:25;43.30;26.70
2893;DHT22;1456;51.840;12.184;2023-06-05T12:10:58;43.40;26.00
2893;DHT22;1456;51.840;12.184;2023-06-05T12:13:47;44.20;26.40
2893;DHT22;1456;51.840;12.184;2023-06-05T12:16:13;45.10;26.00
2893;DHT22;1456;51.840;12.184;2023-06-05T12:18:39;45.50;25.90
2893;DHT22;1456;51.840;12.184;2023-06-05T12:21:05;46.10;24.70
2893;DHT22;1456;51.840;12.184;2023-06-05T12:23:32;46.10;25.00
2893;DHT22;1456;51.840;12.184;2023-06-05T12:26:04;45.80;25.90
2893;DHT22;1456;51.840;12.184;2023-06-05T12:28:31;45.20;26.50
2893;DHT22;1456;51.840;12.184;2023-06-05T12:30:59;44.00;24.40
2893;DHT22;1456;51.840;12.184;2023-06-05T12:33:25;42.70;25.50
2893;DHT22;1456;51.840;12.184;2023-06-05T12:38:30;40.80;25.70
2893;DHT22;1456;51.840;12.184;2023-06-05T12:40:56;39.90;25.00
2893;DHT22;1456;51.840;12.184;2023-06-05T12:43:22;39.00;26.30
2893;DHT22;1456;51.840;12.184;2023-06-05T12:45:48;38.40;26.20
2893;DHT22;1456;51.840;12.184;2023-06-05T12:48:15;37.90;26.50
2893;DHT22;1456;51.840;12.184;2023-06-05T12:50:41;37.50;26.40
2893;DHT22;1456;51.840;12.184;2023-06-05T12:53:08;37.00;26.90
2893;DHT22;1456;51.840;12.184;2023-06-05T12:55:34;36.60;25.60
2893;DHT22;1456;51.840;12.184;2023-06-05T12:57:59;36.30;25.80
2893;DHT22;1456;51.840;12.184;2023-06-05T13:00:25;35.90;26.60
2893;DHT22;1456;51.840;12.184;2023-06-05T13:02:51;35.60;26.40
2893;DHT22;1456;51.840;12.184;2023-06-05T13:05:17;35.10;26.40
2893;DHT22;1456;51.840;12.184;2023-06-05T13:07:43;35.00;27.50
2893;DHT22;1456;51.840;12.184;2023-06-05T13:10:09;35.10;26.80
2893;DHT22;1456;51.840;12.184;2023-06-05T13:12:36;35.10;27.90
2893;DHT22;1456;51.840;12.184;2023-06-05T13:15:02;35.60;27.40
2893;DHT22;1456;51.840;12.184;2023-06-05T13:17:31;36.20;27.80
2893;DHT22;1456;51.840;12.184;2023-06-05T13:19:59;36.30;26.30
2893;DHT22;1456;51.840;12.184;2023-06-05T13:22:25;36.50;27.90
2893;DHT22;1456;51.840;12.184;2023-06-05T13:24:52;37.00;26.00
2893;DHT22;1456;51.840;12.184;2023-06-05T13:27:18;37.50;27.00
2893;DHT22;1456;51.840;12.184;2023-06-05T13:29:45;38.10;26.70
2893;DHT22;1456;51.840;12.184;2023-06-05T13:32:10;39.00;26.10
2893;DHT22;1456;51.840;12.184;2023-06-05T13:34:36;39.70;26.20
2893;DHT22;1456;51.840;12.184;2023-06-05T13:37:02;40.70;25.60
2893;DHT22;1456;51.840;12.184;2023-06-05T13:39:28;41.40;26.30
2893;DHT22;1456;51.840;12.184;2023-06-05T13:41:54;42.30;25.40
2893;DHT22;1456;51.840;12.184;2023-06-05T13:44:20;43.40;25.20
2893;DHT22;1456;51.840;12.184;2023-06-05T13:46:46;44.10;24.20
2893;DHT22;1456;51.840;12.184;2023-06-05T13:49:12;44.70;23.80
2893;DHT22;1456;51.840;12.184;2023-06-05T13:51:37;44.80;24.40
2893;DHT22;1456;51.840;12.184;2023-06-05T13:54:04;44.30;25.00
2893;DHT22;1456;51.840;12.184;2023-06-05T13:56:30;43.40;25.20
2893;DHT22;1456;51.840;12.184;2023-06-05T13:58:56;43.00;24.70
2893;DHT22;1456;51.840;12.184;2023-06-05T14:01:23;42.90;24.20
2893;DHT22;1456;51.840;12.184;2023-06-05T14:03:49;42.70;24.60
2893;DHT22;1456;51.840;12.184;2023-06-05T14:06:16;42.60;25.20
2893;DHT22;1456;51.840;12.184;2023-06-05T14:08:42;42.60;25.00
2893;DHT22;1456;51.840;12.184;2023-06-05T14:11:08;42.40;23.80
2893;DHT22;1456;51.840;12.184;2023-06-05T14:13:35;41.80;24.40
2893;DHT22;1456;51.840;12.184;2023-06-05T14:16:01;41.20;25.50
2893;DHT22;1456;51.840;12.184;2023-06-05T14:18:29;41.70;24.90
2893;DHT22;1456;51.840;12.184;2023-06-05T14:20:54;43.70;25.00
2893;DHT22;1456;51.840;12.184;2023-06-05T14:23:20;45.90;23.30
2893;DHT22;1456;51.840;12.184;2023-06-05T14:25:49;47.10;24.10
2893;DHT22;1456;51.840;12.184;2023-06-05T14:28:15;46.70;23.90
2893;DHT22;1456;51.840;12.184;2023-06-05T14:30:40;46.10;24.00
2893;DHT22;1456;51.840;12.184;2023-06-05T14:33:06;46.40;23.70
2893;DHT22;1456;51.840;12.184;2023-06-05T14:35:32;47.10;24.10
2893;DHT22;1456;51.840;12.184;2023-06-05T14:37:58;48.20;23.90
2893;DHT22;1456;51.840;12.184;2023-06-05T14:40:23;48.50;23.40
2893;DHT22;1456;51.840;12.184;2023-06-05T14:42:49;47.90;22.90
2893;DHT22;1456;51.840;12.184;2023-06-05T14:45:15;46.50;22.80
2893;DHT22;1456;51.840;12.184;2023-06-05T14:47:41;44.80;22.90
2893;DHT22;1456;51.840;12.184;2023-06-05T14:50:07;43.10;23.80
2893;DHT22;1456;51.840;12.184;2023-06-05T14:52:33;41.80;24.00
2893;DHT22;1456;51.840;12.184;2023-06-05T14:54:59;40.70;24.30
2893;DHT22;1456;51.840;12.184;2023-06-05T14:57:25;41.00;24.90
2893;DHT22;1456;51.840;12.184;2023-06-05T14:59:50;42.30;24.60
2893;DHT22;1456;51.840;12.184;2023-06-05T15:02:16;43.70;24.40
2893;DHT22;1456;51.840;12.184;2023-06-05T15:04:43;44.90;24.10
2893;DHT22;1456;51.840;12.184;2023-06-05T15:07:08;45.90;24.30
2893;DHT22;1456;51.840;12.184;2023-06-05T15:09:34;47.50;22.90
2893;DHT22;1456;51.840;12.184;2023-06-05T15:12:00;48.30;22.70
2893;DHT22;1456;51.840;12.184;2023-06-05T15:14:25;48.60;23.00
2893;DHT22;1456;51.840;12.184;2023-06-05T15:16:51;48.50;22.70
2893;DHT22;1456;51.840;12.184;2023-06-05T15:19:17;49.00;22.70
2893;DHT22;1456;51.840;12.184;2023-06-05T15:21:43;49.40;21.70
2893;DHT22;1456;51.840;12.184;2023-06-05T15:24:09;49.20;21.90
2893;DHT22;1456;51.840;12.184;2023-06-05T15:26:35;49.10;22.00
2893;DHT22;1456;51.840;12.184;2023-06-05T15:29:01;48.70;21.90
2893;DHT22;1456;51.840;12.184;2023-06-05T15:31:26;48.30;22.00
2893;DHT22;1456;51.840;12.184;2023-06-05T15:33:52;48.70;21.80
2893;DHT22;1456;51.840;12.184;2023-06-05T15:36:18;49.10;22.40
2893;DHT22;1456;51.840;12.184;2023-06-05T15:38:44;50.10;21.50
2893;DHT22;1456;51.840;12.184;2023-06-05T15:41:10;50.40;21.50
2893;DHT22;1456;51.840;12.184;2023-06-05T15:43:36;50.70;21.90
2893;DHT22;1456;51.840;12.184;2023-06-05T15:46:02;50.80;21.40
2893;DHT22;1456;51.840;12.184;2023-06-05T15:48:28;48.90;20.80
2893;DHT22;1456;51.840;12.184;2023-06-05T15:50:54;46.40;21.90
2893;DHT22;1456;51.840;12.184;2023-06-05T15:53:22;43.90;22.80
2893;DHT22;1456;51.840;12.184;2023-06-05T15:55:48;41.70;22.00
2893;DHT22;1456;51.840;12.184;2023-06-05T15:58:14;39.10;22.40
2893;DHT22;1456;51.840;12.184;2023-06-05T16:00:40;37.40;23.00
2893;DHT22;1456;51.840;12.184;2023-06-05T16:03:06;36.10;23.60
2893;DHT22;1456;51.840;12.184;2023-06-05T16:05:32;36.00;24.60
2893;DHT22;1456;51.840;12.184;2023-06-05T16:07:57;37.50;24.40
2893;DHT22;1456;51.840;12.184;2023-06-05T16:10:23;39.50;23.60
2893;DHT22;1456;51.840;12.184;2023-06-05T16:12:49;41.10;23.40
2893;DHT22;1456;51.840;12.184;2023-06-05T16:15:16;42.90;23.70
2893;DHT22;1456;51.840;12.184;2023-06-05T16:17:42;43.90;22.70
2893;DHT22;1456;51.840;12.184;2023-06-05T16:20:09;44.70;22.70
2893;DHT22;1456;51.840;12.184;2023-06-05T16:22:35;45.40;22.50
2893;DHT22;1456;51.840;12.184;2023-06-05T16:25:03;45.10;22.30
2893;DHT22;1456;51.840;12.184;2023-06-05T16:27:29;46.10;22.70
2893;DHT22;1456;51.840;12.184;2023-06-05T16:29:55;47.20;22.60
2893;DHT22;1456;51.840;12.184;2023-06-05T16:32:21;47.90;21.30